Time;durP1;ratioP1;P1;durP2;ratioP2;P2;SDS_P1;SDS_P2;PMS_P1;PMS_P2;Temp;Humidity;BMP_temperature;BMP_pressure;BME280_temperature;BME280_humidity;BME280_pressure;Samples;Min_cycle;Max_cycle;Signal;HPM_P1;HPM_P2
2023/05/30 00:01:39;;;;;;;9.05;1.60;;;15.20;64.10;;;;;;5077795;28;20035;-83
2023/05/30 00:04:05;;;;;;;4.97;1.50;;;15.20;64.30;;;;;;5094651;28;20534;-83
2023/05/30 00:06:31;;;;;;;5.70;1.50;;;15.20;64.40;;;;;;5094578;28;20023;-83
2023/05/30 00:08:57;;;;;;;7.90;2.05;;;15.20;64.50;;;;;;5094688;28;20024;-84
2023/05/30 00:11:24;;;;;;;8.05;1.73;;;15.20;64.70;;;;;;5111595;28;20095;-83
2023/05/30 00:13:50;;;;;;;9.05;1.55;;;15.10;65.00;;;;;;5111583;28;20054;-83
2023/05/30 00:16:19;;;;;;;6.50;1.58;;;15.10;65.30;;;;;;5111361;28;20381;-83
2023/05/30 00:18:45;;;;;;;8.05;1.75;;;15.10;65.40;;;;;;5094884;28;20024;-83
2023/05/30 00:21:11;;;;;;;8.60;1.75;;;15.00;65.60;;;;;;5111339;28;20180;-84
2023/05/30 00:23:39;;;;;;;5.18;1.58;;;15.00;65.80;;;;;;5111380;28;20524;-83
2023/05/30 00:26:08;;;;;;;9.05;1.90;;;14.90;65.90;;;;;;5111412;28;20473;-83
2023/05/30 00:28:34;;;;;;;6.07;2.20;;;14.90;65.90;;;;;;5094911;28;20073;-83
2023/05/30 00:31:00;;;;;;;6.60;1.60;;;14.90;66.30;;;;;;5111480;28;20027;-83
2023/05/30 00:33:26;;;;;;;8.68;1.85;;;14.90;66.50;;;;;;5094409;28;20030;-83
2023/05/30 00:35:51;;;;;;;6.88;1.63;;;14.80;66.50;;;;;;5077390;28;20035;-83
2023/05/30 00:38:17;;;;;;;7.85;2.08;;;14.80;66.70;;;;;;5095973;28;20030;-83
2023/05/30 00:40:43;;;;;;;7.35;2.17;;;14.80;66.80;;;;;;5081234;28;20019;-83
2023/05/30 00:43:09;;;;;;;7.65;2.42;;;14.80;67.70;;;;;;5098194;28;20118;-83
2023/05/30 00:45:35;;;;;;;7.00;1.92;;;14.70;67.00;;;;;;5081220;28;20418;-83
2023/05/30 00:48:01;;;;;;;9.90;1.95;;;14.70;67.30;;;;;;5097945;28;20032;-84
2023/05/30 00:50:30;;;;;;;10.77;1.90;;;14.70;67.30;;;;;;5097885;28;20019;-84
2023/05/30 00:52:57;;;;;;;10.35;1.58;;;14.70;67.40;;;;;;5098274;28;20086;-83
2023/05/30 00:55:25;;;;;;;8.70;2.17;;;14.70;67.70;;;;;;5116147;28;20565;-83
2023/05/30 00:57:52;;;;;;;13.73;2.28;;;14.70;67.90;;;;;;5114971;28;20051;-83
2023/05/30 01:00:19;;;;;;;8.20;1.67;;;14.60;68.00;;;;;;5081068;28;20084;-84
2023/05/30 01:02:46;;;;;;;8.80;2.30;;;14.60;68.20;;;;;;5114605;28;20480;-83
2023/05/30 01:05:14;;;;;;;6.75;2.08;;;14.50;68.20;;;;;;5097882;28;20361;-83
2023/05/30 01:07:43;;;;;;;4.18;1.60;;;14.50;68.50;;;;;;5114971;28;20020;-83
2023/05/30 01:10:11;;;;;;;6.20;1.80;;;14.50;68.70;;;;;;5114669;28;20498;-83
2023/05/30 01:13:02;;;;;;;6.22;1.63;;;14.50;68.60;;;;;;5114566;28;20114;-83
2023/05/30 01:15:32;;;;;;;6.70;1.98;;;14.50;68.50;;;;;;5114303;28;20062;-83
2023/05/30 01:18:07;;;;;;;9.25;1.80;;;14.50;68.60;;;;;;5114534;28;20023;-83
2023/05/30 01:20:38;;;;;;;9.90;1.90;;;14.50;68.60;;;;;;5114286;28;20038;-83
2023/05/30 01:23:16;;;;;;;5.35;1.70;;;14.50;68.80;;;;;;5114341;28;20019;-83
2023/05/30 01:26:04;;;;;;;10.15;2.08;;;14.50;68.80;;;;;;5115495;28;20047;-83
2023/05/30 01:28:33;;;;;;;9.73;1.98;;;14.40;69.00;;;;;;5114266;28;20023;-83
2023/05/30 01:30:59;;;;;;;10.48;2.10;;;14.40;69.30;;;;;;5115521;28;20032;-83
2023/05/30 01:33:27;;;;;;;7.15;2.10;;;14.30;69.60;;;;;;5097268;28;20503;-83
2023/05/30 01:35:52;;;;;;;5.57;1.92;;;14.30;69.70;;;;;;5097452;28;20032;-83
2023/05/30 01:38:18;;;;;;;11.43;2.10;;;14.30;69.70;;;;;;5113942;28;20502;-83
2023/05/30 01:40:53;;;;;;;8.95;2.08;;;14.30;69.80;;;;;;5114025;28;20023;-83
2023/05/30 01:43:41;;;;;;;8.38;2.15;;;14.30;69.90;;;;;;5113965;28;20035;-83
2023/05/30 01:46:36;;;;;;;8.20;1.90;;;14.30;69.90;;;;;;5113876;28;20488;-83
2023/05/30 01:49:33;;;;;;;8.50;3.03;;;14.20;70.10;;;;;;5114911;27;20043;-83
2023/05/30 01:52:10;;;;;;;6.93;1.50;;;14.20;70.20;;;;;;5113785;28;20028;-83
2023/05/30 01:54:36;;;;;;;8.82;1.55;;;14.20;70.50;;;;;;5113754;28;20408;-83
2023/05/30 01:57:09;;;;;;;6.75;2.13;;;14.10;70.50;;;;;;5113641;28;20024;-83
2023/05/30 01:59:37;;;;;;;5.93;1.80;;;14.10;70.80;;;;;;5113611;28;20035;-83
2023/05/30 02:02:03;;;;;;;5.60;2.00;;;14.00;71.20;;;;;;5114823;28;20077;-83
2023/05/30 02:04:30;;;;;;;8.05;1.80;;;14.00;71.10;;;;;;5079866;28;20020;-83
2023/05/30 02:06:56;;;;;;;10.45;2.67;;;14.00;71.00;;;;;;5113485;28;20023;-83
2023/05/30 02:09:23;;;;;;;9.82;2.50;;;14.00;71.30;;;;;;5079643;28;20036;-83
2023/05/30 02:11:48;;;;;;;11.35;2.55;;;14.00;71.30;;;;;;5079590;28;20051;-83
2023/05/30 02:14:14;;;;;;;7.50;2.33;;;14.00;71.40;;;;;;5079508;28;20492;-83
2023/05/30 02:16:40;;;;;;;6.38;1.77;;;14.00;71.50;;;;;;5096404;28;20028;-83
2023/05/30 02:19:06;;;;;;;6.60;2.42;;;13.90;71.50;;;;;;5079634;28;20032;-83
2023/05/30 02:21:32;;;;;;;7.07;2.10;;;13.90;71.80;;;;;;5096223;28;20035;-83
2023/05/30 02:23:58;;;;;;;7.22;1.98;;;13.90;72.00;;;;;;5113165;28;20042;-83
2023/05/30 02:26:26;;;;;;;9.85;2.88;;;13.80;72.20;;;;;;5114335;28;20103;-83
2023/05/30 02:28:51;;;;;;;7.85;2.13;;;13.80;72.10;;;;;;5113149;28;20027;-83
2023/05/30 02:31:17;;;;;;;9.48;2.65;;;13.80;72.00;;;;;;5079231;28;20427;-83
2023/05/30 02:33:43;;;;;;;6.78;2.10;;;13.80;72.20;;;;;;5079126;28;20471;-83
2023/05/30 02:36:09;;;;;;;7.13;1.77;;;13.80;72.30;;;;;;5096196;28;20012;-83
2023/05/30 02:38:35;;;;;;;8.40;2.17;;;13.70;72.50;;;;;;5078978;28;20020;-83
2023/05/30 02:41:00;;;;;;;9.40;2.50;;;13.70;72.50;;;;;;5114125;28;20020;-83
2023/05/30 02:43:26;;;;;;;10.05;2.13;;;13.80;72.80;;;;;;5078824;28;20024;-83
2023/05/30 02:45:52;;;;;;;7.85;2.65;;;13.80;72.90;;;;;;5095785;28;20030;-83
2023/05/30 02:48:18;;;;;;;8.48;1.88;;;13.80;73.00;;;;;;5095486;28;20099;-83
2023/05/30 02:50:44;;;;;;;8.18;2.35;;;13.80;73.00;;;;;;5095718;28;20024;-83
2023/05/30 02:53:10;;;;;;;8.25;1.95;;;13.80;73.00;;;;;;5095650;28;20026;-83
2023/05/30 02:55:36;;;;;;;9.45;2.50;;;13.80;73.30;;;;;;5112913;28;20027;-83
2023/05/30 02:58:01;;;;;;;8.60;2.00;;;13.80;73.50;;;;;;5112491;28;20023;-83
2023/05/30 03:00:27;;;;;;;7.18;2.42;;;13.80;73.30;;;;;;5078170;28;20100;-83
2023/05/30 03:02:54;;;;;;;6.10;2.15;;;13.80;73.30;;;;;;5095390;28;20019;-82
2023/05/30 03:05:20;;;;;;;11.10;3.15;;;13.90;73.20;;;;;;5078688;28;20473;-83
2023/05/30 03:07:46;;;;;;;8.70;2.38;;;13.90;73.10;;;;;;5095590;28;20026;-83
2023/05/30 03:10:12;;;;;;;7.78;2.13;;;13.90;73.10;;;;;;5095403;28;20107;-83
2023/05/30 03:12:37;;;;;;;8.40;2.42;;;13.90;73.10;;;;;;5112260;28;20119;-83
2023/05/30 03:15:06;;;;;;;7.00;2.47;;;13.90;73.20;;;;;;5078226;28;20039;-83
2023/05/30 03:17:32;;;;;;;10.52;2.50;;;13.80;73.20;;;;;;5112209;28;20036;-83
2023/05/30 03:19:58;;;;;;;8.88;2.40;;;13.90;73.60;;;;;;5078306;28;20088;-83
2023/05/30 03:22:23;;;;;;;6.65;2.72;;;13.80;73.70;;;;;;5078220;28;20072;-83
2023/05/30 03:24:49;;;;;;;7.78;2.08;;;13.80;73.70;;;;;;5078199;28;20028;-83
2023/05/30 03:27:15;;;;;;;8.32;2.65;;;13.90;73.70;;;;;;5078154;28;20031;-83
2023/05/30 03:29:41;;;;;;;10.07;3.00;;;13.90;73.50;;;;;;5095009;28;20034;-83
2023/05/30 03:32:07;;;;;;;12.43;2.55;;;13.90;73.70;;;;;;5078305;28;20031;-83
2023/05/30 03:34:33;;;;;;;8.98;2.35;;;13.90;73.60;;;;;;5095059;28;20027;-83
2023/05/30 03:36:59;;;;;;;7.32;2.55;;;13.90;74.40;;;;;;5078199;28;20038;-83
2023/05/30 03:39:25;;;;;;;8.93;2.95;;;13.90;73.60;;;;;;5094841;28;20118;-83
2023/05/30 03:41:51;;;;;;;6.82;2.17;;;13.90;73.70;;;;;;5094868;28;20023;-83
2023/05/30 03:44:16;;;;;;;7.80;2.42;;;13.90;73.60;;;;;;5094821;28;20380;-83
2023/05/30 03:46:42;;;;;;;7.68;2.40;;;13.90;73.60;;;;;;5078130;28;20012;-83
2023/05/30 03:49:08;;;;;;;10.00;3.28;;;13.90;73.80;;;;;;5111520;28;20481;-83
2023/05/30 03:51:35;;;;;;;10.65;2.55;;;13.90;73.80;;;;;;5094801;28;20118;-83
2023/05/30 03:54:01;;;;;;;6.18;2.50;;;13.90;74.00;;;;;;5095003;28;20047;-83
2023/05/30 03:56:27;;;;;;;10.30;2.90;;;13.90;73.90;;;;;;5111620;28;20016;-83
2023/05/30 03:58:52;;;;;;;7.20;2.40;;;13.80;73.90;;;;;;5094647;28;20065;-83
2023/05/30 04:01:18;;;;;;;9.48;2.70;;;13.90;74.00;;;;;;5094710;28;20045;-83
2023/05/30 04:03:45;;;;;;;10.85;3.00;;;13.90;74.00;;;;;;5111506;28;20047;-83
2023/05/30 04:06:10;;;;;;;7.65;2.78;;;13.90;74.00;;;;;;5094611;28;20047;-83
2023/05/30 04:08:36;;;;;;;8.88;3.05;;;13.90;73.90;;;;;;5094640;28;20477;-83
2023/05/30 04:11:03;;;;;;;6.55;2.67;;;13.90;73.90;;;;;;5094683;28;20477;-83
2023/05/30 04:13:28;;;;;;;10.82;3.17;;;13.90;73.90;;;;;;5113680;28;20027;-83
2023/05/30 04:15:54;;;;;;;7.38;2.53;;;13.80;74.10;;;;;;5115666;28;20066;-83
2023/05/30 04:18:20;;;;;;;8.95;2.67;;;13.90;74.30;;;;;;5081897;28;20024;-83
2023/05/30 04:20:45;;;;;;;5.32;2.42;;;13.90;74.30;;;;;;5081670;28;20024;-83
2023/05/30 04:23:11;;;;;;;12.45;2.78;;;13.90;74.30;;;;;;5109957;27;20019;-83
2023/05/30 04:25:37;;;;;;;13.95;3.13;;;13.90;74.30;;;;;;5101893;27;20028;-83
2023/05/30 04:28:05;;;;;;;11.02;2.92;;;13.90;74.20;;;;;;5135859;27;20020;-83
2023/05/30 04:30:32;;;;;;;9.02;2.78;;;13.90;74.20;;;;;;5110047;27;20035;-83
2023/05/30 04:32:57;;;;;;;10.73;2.67;;;13.90;74.10;;;;;;5144671;27;20030;-83
2023/05/30 04:35:23;;;;;;;6.55;2.55;;;13.90;74.30;;;;;;5129095;27;20384;-83
2023/05/30 04:37:50;;;;;;;11.40;3.40;;;13.90;74.40;;;;;;5128749;27;20015;-83
2023/05/30 04:40:15;;;;;;;11.05;2.83;;;13.90;74.50;;;;;;5127462;27;20019;-83
2023/05/30 04:42:42;;;;;;;11.00;3.13;;;13.90;74.50;;;;;;5129202;27;20474;-83
2023/05/30 04:45:14;;;;;;;7.45;2.88;;;13.90;74.50;;;;;;5128497;27;20454;-83
2023/05/30 04:47:40;;;;;;;9.68;3.13;;;13.90;74.60;;;;;;5141887;27;20119;-83
2023/05/30 04:50:06;;;;;;;9.65;2.78;;;13.90;74.70;;;;;;5115848;27;20448;-83
2023/05/30 04:52:32;;;;;;;11.00;3.70;;;13.90;74.80;;;;;;5139088;27;20034;-83
2023/05/30 04:54:58;;;;;;;11.65;2.95;;;13.90;74.80;;;;;;5121965;27;20030;-83
2023/05/30 04:57:23;;;;;;;9.50;3.10;;;13.90;74.70;;;;;;5156194;27;20071;-83
2023/05/30 04:59:49;;;;;;;9.90;2.97;;;13.90;74.50;;;;;;5112898;28;20555;-83
2023/05/30 05:02:16;;;;;;;11.77;3.47;;;13.90;74.60;;;;;;5097871;28;20392;-83
2023/05/30 05:04:41;;;;;;;9.20;3.22;;;13.90;74.60;;;;;;5128237;27;20523;-83
2023/05/30 05:07:07;;;;;;;10.85;3.72;;;13.90;74.50;;;;;;5112078;27;20010;-83
2023/05/30 05:09:33;;;;;;;7.10;3.15;;;13.90;74.70;;;;;;5127498;27;20160;-84
2023/05/30 05:12:00;;;;;;;8.68;3.13;;;14.00;74.90;;;;;;5117531;27;20488;-83
2023/05/30 05:14:26;;;;;;;9.25;3.25;;;14.00;74.80;;;;;;5138863;27;20019;-83
2023/05/30 05:16:52;;;;;;;10.02;2.92;;;14.00;74.80;;;;;;5138499;27;20042;-83
2023/05/30 05:19:17;;;;;;;10.52;3.20;;;14.00;75.80;;;;;;5149679;27;20088;-83
2023/05/30 05:21:43;;;;;;;10.52;3.58;;;14.10;74.60;;;;;;5126999;27;20034;-83
2023/05/30 05:24:08;;;;;;;11.38;3.13;;;14.10;74.40;;;;;;5111317;27;20023;-83
2023/05/30 05:26:35;;;;;;;9.00;3.80;;;14.10;74.60;;;;;;5123065;27;20020;-83
2023/05/30 05:29:00;;;;;;;11.77;3.55;;;14.00;74.80;;;;;;5134930;27;20064;-84
2023/05/30 05:31:27;;;;;;;8.43;3.30;;;13.90;74.80;;;;;;5117702;27;20035;-83
2023/05/30 05:33:52;;;;;;;10.35;3.85;;;13.90;75.00;;;;;;5117583;27;20024;-83
2023/05/30 05:36:18;;;;;;;8.27;3.60;;;13.90;75.00;;;;;;5117675;27;20434;-83
2023/05/30 05:38:44;;;;;;;12.48;3.97;;;13.90;75.30;;;;;;5134681;27;20062;-83
2023/05/30 05:41:10;;;;;;;10.52;3.63;;;14.00;75.20;;;;;;5117437;27;20055;-83
2023/05/30 05:43:36;;;;;;;9.00;3.22;;;13.90;75.10;;;;;;5117370;27;20027;-83
2023/05/30 05:46:02;;;;;;;6.72;3.35;;;14.00;75.30;;;;;;5117507;27;20627;-84
2023/05/30 06:16:40;;;;;;;9.02;3.45;;;13.00;77.10;;;;;;5131561;27;20388;-76
2023/05/30 06:19:06;;;;;;;13.05;4.15;;;12.90;77.60;;;;;;5130290;28;20050;-77
2023/05/30 06:21:32;;;;;;;11.00;4.00;;;13.00;78.60;;;;;;5131254;28;20053;-77
2023/05/30 06:23:59;;;;;;;7.55;3.70;;;13.00;78.80;;;;;;5113373;28;20031;-77
2023/05/30 06:26:25;;;;;;;10.05;3.60;;;13.20;78.70;;;;;;5130177;28;20027;-77
2023/05/30 06:28:50;;;;;;;16.58;4.88;;;13.30;78.60;;;;;;5130083;28;20119;-77
2023/05/30 06:31:16;;;;;;;9.55;3.80;;;13.40;78.20;;;;;;5130247;28;20054;-77
2023/05/30 06:33:42;;;;;;;8.82;3.83;;;13.50;77.70;;;;;;5130049;28;20024;-77
2023/05/30 06:36:07;;;;;;;7.18;3.78;;;13.60;77.70;;;;;;5130054;28;20116;-77
2023/05/30 06:38:33;;;;;;;7.25;3.40;;;13.70;77.40;;;;;;5129937;28;20050;-77
2023/05/30 06:40:59;;;;;;;8.75;3.63;;;13.70;77.20;;;;;;5130027;28;20031;-77
2023/05/30 06:43:24;;;;;;;5.30;3.42;;;13.80;76.80;;;;;;5112908;28;20032;-77
2023/05/30 06:45:50;;;;;;;8.10;3.92;;;13.90;76.40;;;;;;5129923;28;20053;-77
2023/05/30 06:48:15;;;;;;;8.55;4.07;;;14.00;76.20;;;;;;5130748;28;20032;-78
2023/05/30 06:50:41;;;;;;;8.68;4.10;;;14.10;76.00;;;;;;5112716;28;20028;-77
2023/05/30 06:53:06;;;;;;;13.70;4.35;;;14.10;75.80;;;;;;5129814;28;20027;-76
2023/05/30 06:55:32;;;;;;;9.55;4.35;;;14.10;75.70;;;;;;5129516;28;20032;-76
2023/05/30 06:57:58;;;;;;;10.60;3.80;;;14.10;75.40;;;;;;5130614;28;20038;-78
2023/05/30 07:00:23;;;;;;;9.10;3.70;;;14.20;75.20;;;;;;5130577;28;20028;-77
2023/05/30 07:02:50;;;;;;;9.10;4.13;;;14.20;75.10;;;;;;5129603;28;20028;-77
2023/05/30 07:05:15;;;;;;;7.22;3.90;;;14.20;75.10;;;;;;5129455;28;20024;-77
2023/05/30 07:07:45;;;;;;;9.85;3.45;;;14.20;74.90;;;;;;5129584;28;20050;-77
2023/05/30 07:10:12;;;;;;;7.55;3.47;;;14.30;75.00;;;;;;5129376;28;20384;-77
2023/05/30 07:12:38;;;;;;;7.75;3.67;;;14.30;75.00;;;;;;5129451;28;20024;-76
2023/05/30 07:15:05;;;;;;;11.10;3.90;;;14.30;75.10;;;;;;5129908;28;20051;-77
2023/05/30 07:17:31;;;;;;;8.68;3.58;;;14.40;75.00;;;;;;5130253;28;20096;-77
2023/05/30 07:19:57;;;;;;;8.10;3.53;;;14.50;74.80;;;;;;5130363;28;20061;-76
2023/05/30 07:22:22;;;;;;;8.52;4.38;;;14.50;74.80;;;;;;5130151;28;20032;-77
2023/05/30 07:24:48;;;;;;;8.85;3.45;;;14.60;74.20;;;;;;5130111;28;20020;-77
2023/05/30 07:27:14;;;;;;;9.88;3.92;;;14.60;74.00;;;;;;5102917;28;20035;-77
2023/05/30 07:29:41;;;;;;;8.35;3.47;;;14.70;74.10;;;;;;5116134;28;20073;-77
2023/05/30 07:32:07;;;;;;;9.07;3.58;;;14.70;73.90;;;;;;5115454;28;20387;-77
2023/05/30 07:34:32;;;;;;;8.90;3.40;;;14.80;73.90;;;;;;5115249;28;20043;-77
2023/05/30 07:36:58;;;;;;;8.18;3.15;;;14.90;73.90;;;;;;5115403;28;20032;-77
2023/05/30 07:39:24;;;;;;;8.65;3.38;;;14.90;73.60;;;;;;5098329;28;20024;-77
2023/05/30 07:41:49;;;;;;;7.75;3.28;;;14.90;72.90;;;;;;5116176;28;20022;-77
2023/05/30 07:44:15;;;;;;;8.80;3.22;;;14.90;72.40;;;;;;5115021;28;20043;-77
2023/05/30 07:46:41;;;;;;;7.25;3.17;;;14.90;71.80;;;;;;5114981;28;20031;-77
2023/05/30 07:49:07;;;;;;;12.65;3.88;;;14.90;71.90;;;;;;5116029;28;20427;-77
2023/05/30 07:51:33;;;;;;;7.25;3.17;;;15.00;71.80;;;;;;5114964;28;20100;-77
2023/05/30 07:53:58;;;;;;;6.95;3.17;;;15.00;71.70;;;;;;5115986;28;20028;-79
2023/05/30 07:56:26;;;;;;;5.65;3.25;;;15.10;71.30;;;;;;5114942;28;20483;-79
2023/05/30 07:58:51;;;;;;;11.80;3.60;;;15.10;71.30;;;;;;5114873;28;20055;-78
2023/05/30 08:01:17;;;;;;;8.52;4.05;;;15.20;71.60;;;;;;5114792;28;20022;-78
2023/05/30 08:03:42;;;;;;;5.78;3.42;;;15.30;71.50;;;;;;5115757;28;20416;-78
2023/05/30 08:06:08;;;;;;;10.82;3.17;;;15.40;71.20;;;;;;5097823;28;20119;-78
2023/05/30 08:08:37;;;;;;;7.13;3.20;;;15.40;71.00;;;;;;5114730;28;20035;-78
2023/05/30 08:11:03;;;;;;;11.10;3.58;;;15.50;71.10;;;;;;5098219;28;20032;-78
2023/05/30 08:13:29;;;;;;;7.43;3.10;;;15.60;70.90;;;;;;5115678;28;20042;-79
2023/05/30 08:15:55;;;;;;;9.57;3.58;;;15.70;70.10;;;;;;5114281;28;20044;-78
2023/05/30 08:18:21;;;;;;;8.55;3.38;;;15.80;70.70;;;;;;5115303;28;20031;-78
2023/05/30 08:20:49;;;;;;;8.88;3.20;;;15.80;69.90;;;;;;5097620;28;20024;-78
2023/05/30 08:23:16;;;;;;;5.78;3.30;;;15.70;69.60;;;;;;5115399;28;20028;-78
2023/05/30 08:25:45;;;;;;;7.97;2.63;;;15.70;69.50;;;;;;5114474;28;20077;-78
2023/05/30 08:28:11;;;;;;;7.75;3.33;;;15.70;69.60;;;;;;5114240;28;20077;-78
2023/05/30 08:30:36;;;;;;;8.13;3.53;;;15.70;69.60;;;;;;5115216;28;20024;-78
2023/05/30 08:33:02;;;;;;;11.27;3.90;;;15.70;69.40;;;;;;5115136;28;20055;-78
2023/05/30 08:35:28;;;;;;;7.78;3.55;;;15.70;69.20;;;;;;5114142;28;20052;-78
2023/05/30 08:37:54;;;;;;;5.88;3.13;;;15.70;69.10;;;;;;5113343;28;20087;-78
2023/05/30 08:40:24;;;;;;;15.82;5.35;;;15.70;69.10;;;;;;5096838;28;20031;-78
2023/05/30 08:42:50;;;;;;;10.57;3.60;;;15.80;69.50;;;;;;5114979;28;20086;-78
2023/05/30 08:45:16;;;;;;;9.55;4.20;;;15.90;69.00;;;;;;5114056;28;20130;-78
2023/05/30 08:47:43;;;;;;;8.52;3.45;;;15.90;69.30;;;;;;5113943;28;20073;-78
2023/05/30 08:50:09;;;;;;;10.48;3.80;;;16.00;69.40;;;;;;5114816;28;20042;-78
2023/05/30 08:52:40;;;;;;;11.23;3.58;;;16.00;69.10;;;;;;5113748;28;20177;-79
2023/05/30 08:55:21;;;;;;;9.30;3.17;;;16.10;68.50;;;;;;5113701;28;20058;-78
2023/05/30 08:57:59;;;;;;;10.52;3.65;;;16.20;69.20;;;;;;5113638;28;20023;-78
2023/05/30 09:00:26;;;;;;;8.18;3.70;;;16.30;69.10;;;;;;5113571;28;20012;-78
2023/05/30 09:02:57;;;;;;;10.32;3.60;;;16.40;68.30;;;;;;5113645;28;20032;-79
2023/05/30 09:05:25;;;;;;;6.95;3.50;;;16.40;68.30;;;;;;5114591;28;20031;-79
2023/05/30 09:07:53;;;;;;;11.43;3.90;;;16.50;68.20;;;;;;5114527;28;20103;-78
2023/05/30 09:10:19;;;;;;;7.38;3.78;;;16.60;67.40;;;;;;5113415;28;20028;-78
2023/05/30 09:12:45;;;;;;;7.20;3.70;;;16.60;67.70;;;;;;5113504;28;20035;-78
2023/05/30 09:15:11;;;;;;;10.55;4.22;;;16.70;68.20;;;;;;5113176;28;20052;-78
2023/05/30 09:17:37;;;;;;;7.45;3.72;;;16.70;68.30;;;;;;5113350;28;20016;-78
2023/05/30 09:20:04;;;;;;;7.68;3.90;;;16.80;67.70;;;;;;5113187;28;20031;-78
2023/05/30 09:22:30;;;;;;;9.13;4.25;;;16.90;67.60;;;;;;5113169;28;20021;-78
2023/05/30 09:25:01;;;;;;;7.30;3.53;;;17.00;67.20;;;;;;5114103;28;20038;-78
2023/05/30 09:27:28;;;;;;;7.68;3.60;;;17.10;67.60;;;;;;5113097;28;20125;-78
2023/05/30 09:29:54;;;;;;;8.13;3.63;;;17.20;67.30;;;;;;5114115;28;20031;-79
2023/05/30 09:32:34;;;;;;;8.45;3.90;;;17.20;67.20;;;;;;5113022;28;20024;-78
2023/05/30 09:35:03;;;;;;;8.25;3.60;;;17.30;67.10;;;;;;5113876;28;20032;-79
2023/05/30 09:37:41;;;;;;;8.70;4.13;;;17.30;67.00;;;;;;5113918;28;20046;-79
2023/05/30 09:40:08;;;;;;;7.90;3.78;;;17.50;66.30;;;;;;5113035;28;20031;-79
2023/05/30 09:42:51;;;;;;;9.85;3.63;;;17.50;66.60;;;;;;5113893;28;20065;-79
2023/05/30 09:45:22;;;;;;;9.15;4.20;;;17.60;66.80;;;;;;5112920;28;20100;-79
2023/05/30 09:47:49;;;;;;;8.63;3.78;;;17.70;66.50;;;;;;5113806;28;20024;-79
2023/05/30 09:50:20;;;;;;;11.05;3.97;;;17.80;66.00;;;;;;5113482;28;20024;-79
2023/05/30 09:52:51;;;;;;;10.85;3.60;;;17.80;64.30;;;;;;5112829;28;20020;-79
2023/05/30 09:55:18;;;;;;;9.23;3.97;;;17.80;65.10;;;;;;5112811;28;20058;-78
2023/05/30 09:57:48;;;;;;;7.00;3.60;;;17.90;65.30;;;;;;5112759;28;20030;-78
2023/05/30 10:00:16;;;;;;;8.63;3.95;;;17.90;65.10;;;;;;5113603;28;20024;-78
2023/05/30 10:02:53;;;;;;;9.82;4.00;;;18.00;65.00;;;;;;5095950;28;20054;-78
2023/05/30 10:05:20;;;;;;;15.57;4.43;;;18.10;64.00;;;;;;5113634;28;20027;-78
2023/05/30 10:07:48;;;;;;;10.05;4.03;;;18.10;64.10;;;;;;5112616;28;20118;-78
2023/05/30 10:10:14;;;;;;;9.07;3.97;;;18.20;64.80;;;;;;5113510;28;20073;-78
2023/05/30 10:12:42;;;;;;;8.88;3.80;;;18.30;64.30;;;;;;5113534;28;20035;-78
2023/05/30 10:15:09;;;;;;;8.23;3.70;;;18.40;63.70;;;;;;5112307;28;20075;-78
2023/05/30 10:17:38;;;;;;;9.20;3.55;;;18.50;62.90;;;;;;5112538;28;20021;-78
2023/05/30 10:20:09;;;;;;;7.85;3.78;;;18.50;63.40;;;;;;5113439;28;20020;-78
2023/05/30 10:22:44;;;;;;;7.45;4.05;;;18.60;63.10;;;;;;5113445;28;20027;-78
2023/05/30 10:25:11;;;;;;;9.57;4.35;;;18.70;61.90;;;;;;5113439;28;20023;-78
2023/05/30 10:27:49;;;;;;;7.28;3.88;;;18.70;61.70;;;;;;5112357;28;20028;-78
2023/05/30 10:30:25;;;;;;;9.05;3.95;;;18.70;62.20;;;;;;5113420;28;20024;-78
2023/05/30 10:33:11;;;;;;;9.13;4.03;;;18.80;61.30;;;;;;5113391;28;20038;-78
2023/05/30 10:35:37;;;;;;;8.55;3.97;;;18.70;62.20;;;;;;5113269;28;20109;-78
2023/05/30 10:38:08;;;;;;;9.10;4.03;;;18.80;62.10;;;;;;5113226;28;20047;-78
2023/05/30 10:40:51;;;;;;;8.40;3.63;;;19.00;61.80;;;;;;5113187;28;20405;-78
2023/05/30 10:43:41;;;;;;;8.80;3.95;;;19.10;61.90;;;;;;5113364;28;20028;-78
2023/05/30 10:46:45;;;;;;;11.05;4.20;;;19.20;61.00;;;;;;5113391;28;20079;-78
2023/05/30 10:49:15;;;;;;;11.80;4.45;;;19.20;61.00;;;;;;5113175;28;20032;-79
2023/05/30 10:52:01;;;;;;;6.18;3.38;;;19.10;61.40;;;;;;5113221;28;20024;-78
2023/05/30 10:54:32;;;;;;;12.75;3.90;;;19.20;61.90;;;;;;5113075;28;20027;-78
2023/05/30 10:57:00;;;;;;;12.82;4.38;;;19.30;61.60;;;;;;5113125;28;20020;-78
2023/05/30 10:59:26;;;;;;;7.75;3.22;;;19.40;61.10;;;;;;5113083;28;20020;-78
2023/05/30 11:02:02;;;;;;;7.07;3.92;;;19.40;60.70;;;;;;5114226;28;20055;-78
2023/05/30 11:04:37;;;;;;;11.15;4.18;;;19.50;61.80;;;;;;5116919;28;20020;-78
2023/05/30 11:07:06;;;;;;;9.38;4.05;;;19.60;61.60;;;;;;5116961;28;20425;-78
2023/05/30 11:09:32;;;;;;;10.20;3.92;;;19.70;60.30;;;;;;5115858;28;20043;-78
2023/05/30 11:12:00;;;;;;;8.73;3.97;;;19.70;60.70;;;;;;5115863;28;20051;-78
2023/05/30 11:14:35;;;;;;;9.10;4.55;;;19.80;60.00;;;;;;5116646;28;20008;-78
2023/05/30 11:17:04;;;;;;;6.97;3.60;;;19.90;60.60;;;;;;5116820;28;20036;-78
2023/05/30 11:19:40;;;;;;;9.80;3.83;;;20.00;60.40;;;;;;5116604;28;20023;-78
2023/05/30 11:22:19;;;;;;;8.63;4.25;;;20.00;59.40;;;;;;5116559;28;20026;-79
2023/05/30 11:24:45;;;;;;;7.63;3.65;;;20.00;59.50;;;;;;5115795;28;20027;-78
2023/05/30 11:27:13;;;;;;;9.20;3.85;;;20.10;59.00;;;;;;5115430;28;20036;-78
2023/05/30 11:29:47;;;;;;;9.68;3.90;;;20.10;57.90;;;;;;5116398;28;20042;-78
2023/05/30 11:32:20;;;;;;;10.18;3.58;;;20.10;58.40;;;;;;5116525;28;20031;-78
2023/05/30 11:34:56;;;;;;;7.07;4.18;;;20.20;58.80;;;;;;5098338;28;20028;-78
2023/05/30 11:37:22;;;;;;;5.30;3.13;;;20.30;58.30;;;;;;5116304;28;20024;-78
2023/05/30 11:39:54;;;;;;;10.82;4.70;;;20.30;57.10;;;;;;5116230;28;20024;-78
2023/05/30 11:42:20;;;;;;;5.82;3.47;;;20.40;57.70;;;;;;5116293;28;20028;-78
2023/05/30 11:44:45;;;;;;;8.10;3.38;;;20.50;56.90;;;;;;5098499;28;20024;-79
2023/05/30 11:47:14;;;;;;;8.25;3.40;;;20.50;57.10;;;;;;5116219;28;20043;-78
2023/05/30 11:49:41;;;;;;;7.82;3.63;;;20.50;56.90;;;;;;5115063;28;20036;-78
2023/05/30 11:52:07;;;;;;;9.52;3.95;;;20.60;56.30;;;;;;5116026;28;20082;-78
2023/05/30 11:54:33;;;;;;;7.00;3.60;;;20.80;56.30;;;;;;5098120;28;20031;-78
2023/05/30 11:56:59;;;;;;;7.13;3.92;;;20.90;56.20;;;;;;5115917;28;20027;-78
2023/05/30 11:59:26;;;;;;;8.93;3.60;;;20.90;56.20;;;;;;5114976;28;20020;-77
2023/05/30 12:02:00;;;;;;;7.85;3.80;;;20.90;55.80;;;;;;5114933;28;20032;-78
2023/05/30 12:04:28;;;;;;;10.07;3.65;;;21.00;56.10;;;;;;5115621;28;20035;-78
2023/05/30 12:07:02;;;;;;;5.70;3.17;;;21.00;56.90;;;;;;5115675;28;20051;-78
2023/05/30 12:09:39;;;;;;;8.68;3.97;;;21.20;56.10;;;;;;5097918;28;20096;-78
2023/05/30 12:12:09;;;;;;;6.93;3.65;;;21.20;55.90;;;;;;5115693;28;20017;-78
2023/05/30 12:14:44;;;;;;;7.65;3.47;;;21.20;54.10;;;;;;5114497;28;20017;-78
2023/05/30 12:17:21;;;;;;;8.48;3.47;;;21.20;54.90;;;;;;5115732;28;20035;-78
2023/05/30 12:20:06;;;;;;;7.93;3.22;;;21.20;54.70;;;;;;5097811;28;20027;-78
2023/05/30 12:22:32;;;;;;;8.48;3.55;;;21.40;54.70;;;;;;5115535;28;20028;-78
2023/05/30 12:24:58;;;;;;;11.20;3.28;;;21.50;53.90;;;;;;5114273;28;20103;-78
2023/05/30 12:27:25;;;;;;;8.75;3.28;;;21.50;53.50;;;;;;5114337;28;20020;-78
2023/05/30 12:29:51;;;;;;;6.60;3.65;;;21.50;53.90;;;;;;5115254;28;20020;-78
2023/05/30 12:32:25;;;;;;;7.65;3.70;;;21.60;54.00;;;;;;5114288;28;20031;-78
2023/05/30 12:34:52;;;;;;;6.13;3.55;;;21.60;53.40;;;;;;5115046;28;20397;-78
2023/05/30 12:37:18;;;;;;;8.15;3.08;;;21.70;53.20;;;;;;5115078;28;20107;-78
2023/05/30 12:39:56;;;;;;;7.38;3.05;;;21.80;54.10;;;;;;5115012;28;20036;-78
2023/05/30 12:42:29;;;;;;;8.13;3.70;;;21.80;53.40;;;;;;5114998;28;20081;-78
2023/05/30 12:44:59;;;;;;;10.43;3.35;;;21.90;53.00;;;;;;5113833;28;20031;-78
2023/05/30 12:47:26;;;;;;;8.50;3.40;;;22.00;53.30;;;;;;5114940;28;20020;-78
2023/05/30 12:49:54;;;;;;;9.27;3.55;;;22.00;52.30;;;;;;5114847;28;20020;-78
2023/05/30 12:52:25;;;;;;;7.40;2.83;;;22.10;50.20;;;;;;5114833;28;20024;-77
2023/05/30 12:54:52;;;;;;;6.15;2.90;;;22.10;51.70;;;;;;5114847;28;20028;-78
2023/05/30 12:57:25;;;;;;;5.63;3.10;;;22.10;52.70;;;;;;5114773;28;20024;-77
2023/05/30 12:59:55;;;;;;;7.85;3.95;;;22.20;51.40;;;;;;5114744;28;20110;-78
2023/05/30 13:02:24;;;;;;;8.68;3.30;;;22.30;51.80;;;;;;5113583;28;20036;-78
2023/05/30 13:04:51;;;;;;;9.27;3.83;;;22.30;51.80;;;;;;5114543;28;20020;-77
2023/05/30 13:07:17;;;;;;;14.38;3.80;;;22.30;53.60;;;;;;5113519;28;20024;-77
2023/05/30 13:09:44;;;;;;;7.53;2.90;;;22.50;52.20;;;;;;5113469;28;20024;-77
2023/05/30 13:12:10;;;;;;;8.60;3.50;;;22.50;51.10;;;;;;5113526;28;20016;-77
2023/05/30 13:14:41;;;;;;;8.65;3.83;;;22.50;52.00;;;;;;5113220;28;20030;-77
2023/05/30 13:17:08;;;;;;;7.35;3.22;;;22.50;51.10;;;;;;5114396;28;20049;-78
2023/05/30 13:19:34;;;;;;;6.57;3.80;;;22.60;51.20;;;;;;5113451;28;20020;-78